Airport Name : Imam Khomeini Intl

Other Name : Tehran Khomeini

ICAO : OIIE

IATA : IKA

FAA :

Latitude : 35.416111

Longitude : 51.152222

Country : Iran

Local Date and Time : 7/21/2018 1:55:00 PM

 

TAF (Terminal Aerodrome Forecast)

TAF OIIE 210530Z 2106/2212 12004MPS 7000 FEW040 TEMPO 2109/2116 14012MPS TEMPO 2208/2212 14012MPS

 

METAR (METeorological Aerodrome Report)

OIIE 210900Z 11012KT CAVOK 40/M02 Q1006

OIIE 210830Z 09014KT CAVOK 40/M02 Q1006

OIIE 210800Z 13016KT CAVOK 39/M01 Q1007

OIIE 210700Z 12020KT CAVOK 38/M00 Q1007

OIIE 210600Z 12022KT CAVOK 37/00 Q1007